Jomi — C6VK4 — position and weather

sailwx.info

Track history (hours):
 
Tides and Currents Weather Stations Pressure Air Temp Water Temp Dewpoint Dewpoint Depression Visibility Wind Speed Wind Dir Waves Ship Positions

Jomi

Last reported at 2015-Apr-28 17:33 UTC. Time now 2015-Apr-28 18:16 UTC.
Position N 52°15' W 006°59'.

Length 88 m; draft 4.2 m.

Type: Cargo ship. MMSI: 309701000.

Date/timePositionNaut miles runAvg speedWind from/ knotsBaromVisibWave heightAir tempDewpointWater temp
2015-Apr-28 17:33N 52°15' W 006°59'7 7.3
2015-Apr-28 16:33N 52°08' W 006°60'7 7.1
2015-Apr-28 15:33N 52°04' W 006°50'150 9.7
2015-Apr-28 00:07N 51°27' W 002°55'5 9.4
2015-Apr-27 23:33N 51°30' W 002°48'4 3.7
2015-Apr-27 22:33N 51°31' W 002°42'0 0.0
2015-Apr-27 21:32N 51°31' W 002°42'0 0.0
2015-Apr-27 20:32N 51°31' W 002°42'0 0.0
2015-Apr-27 19:31N 51°31' W 002°42'0 0.0
2015-Apr-27 18:31N 51°31' W 002°42'0 0.0
2015-Apr-27 17:31N 51°31' W 002°42'0 0.0
2015-Apr-27 16:31N 51°31' W 002°42'0 0.0
2015-Apr-27 15:31N 51°31' W 002°42'0 0.0
2015-Apr-27 14:31N 51°31' W 002°42'0 0.0
2015-Apr-27 13:31N 51°31' W 002°42'0 0.0
2015-Apr-27 12:31N 51°31' W 002°42'0 0.0
2015-Apr-27 11:31N 51°31' W 002°42'0 0.0
2015-Apr-27 10:28N 51°31' W 002°42'0 0.0
2015-Apr-27 09:31N 51°31' W 002°42'0 0.0
2015-Apr-27 08:31N 51°31' W 002°42'0 0.0
2015-Apr-27 07:31N 51°31' W 002°42'0 0.0
2015-Apr-27 06:31N 51°31' W 002°42'0 0.0
2015-Apr-27 05:31N 51°31' W 002°42'0 0.0
2015-Apr-27 04:31N 51°31' W 002°42'0 0.0
2015-Apr-27 03:31N 51°31' W 002°42'0 0.0
2015-Apr-27 02:31N 51°31' W 002°42'0 0.0
2015-Apr-27 01:31N 51°31' W 002°42'0 0.0
2015-Apr-27 00:31N 51°31' W 002°42'0 0.0
2015-Apr-26 23:31N 51°31' W 002°42'0 0.0
2015-Apr-26 22:31N 51°31' W 002°42'0 0.0
2015-Apr-26 21:31N 51°31' W 002°42'0 0.0
2015-Apr-26 20:31N 51°31' W 002°42'0 0.0
2015-Apr-26 19:31N 51°31' W 002°42'0 0.0
2015-Apr-26 18:31N 51°31' W 002°42'0 0.0
2015-Apr-26 17:31N 51°31' W 002°42'0 0.0
2015-Apr-26 16:31N 51°31' W 002°42'0 0.0
2015-Apr-26 15:31N 51°31' W 002°42'0 0.0
2015-Apr-26 14:31N 51°31' W 002°42'0 0.0
2015-Apr-26 13:31N 51°31' W 002°42'0 0.0
2015-Apr-26 12:31N 51°31' W 002°42'0 0.3
2015-Apr-26 11:33N 51°30' W 002°42'2 1.7
2015-Apr-26 10:33N 51°30' W 002°45'187 5.3
2015-Apr-24 23:16N 54°11' W 005°21'7 9.8
2015-Apr-24 22:33N 54°18' W 005°21'1010.1
2015-Apr-24 21:33N 54°28' W 005°21'1010.0
2015-Apr-24 20:33N 54°38' W 005°25'8 8.5
2015-Apr-24 19:33N 54°42' W 005°38'10 9.4
2015-Apr-24 18:29N 54°37' W 005°54'0 0.2
2015-Apr-24 17:15N 54°37' W 005°54'0 0.0
2015-Apr-24 14:33N 54°37' W 005°54'0 0.0
2015-Apr-24 11:15N 54°37' W 005°54'0 0.0
2015-Apr-24 07:30N 54°37' W 005°54'0 0.0
2015-Apr-24 06:24N 54°37' W 005°54'0 0.0
2015-Apr-24 05:30N 54°37' W 005°54'0 0.0
2015-Apr-24 04:12N 54°37' W 005°54'0 0.0
2015-Apr-24 03:12N 54°37' W 005°54'0 0.0
2015-Apr-24 01:30N 54°37' W 005°54'0 0.0
2015-Apr-24 00:30N 54°37' W 005°54'0 0.0
2015-Apr-23 23:18N 54°37' W 005°54'0 0.2
2015-Apr-23 22:15N 54°37' W 005°54'0 0.0
2015-Apr-23 17:21N 54°37' W 005°54'0 0.0
2015-Apr-23 14:15N 54°37' W 005°54'0 0.0
2015-Apr-23 11:33N 54°37' W 005°54'0 0.0
2015-Apr-23 04:14N 54°37' W 005°54'0 0.0
2015-Apr-23 02:11N 54°37' W 005°54'0 0.0
2015-Apr-23 01:14N 54°37' W 005°54'0 0.0
2015-Apr-23 00:29N 54°37' W 005°54'0 0.0
2015-Apr-22 23:23N 54°37' W 005°54'0 0.0
2015-Apr-22 07:23N 54°37' W 005°54'0 0.0
2015-Apr-22 06:14N 54°37' W 005°54'0 0.1
2015-Apr-22 05:32N 54°37' W 005°54'0 0.0
2015-Apr-21 19:31N 54°37' W 005°54'0 0.0
2015-Apr-21 18:04N 54°37' W 005°54'0 0.0
2015-Apr-21 17:13N 54°37' W 005°54'2 0.5
2015-Apr-21 14:11N 54°38' W 005°52'6 9.0
2015-Apr-21 13:33N 54°41' W 005°44'2 2.3
2015-Apr-21 12:31N 54°41' W 005°40'0 0.0
2015-Apr-21 11:31N 54°41' W 005°40'0 0.0
2015-Apr-21 10:31N 54°41' W 005°40'0 0.0
2015-Apr-21 09:28N 54°41' W 005°40'0 0.0
2015-Apr-21 08:31N 54°41' W 005°40'0 0.0
2015-Apr-21 07:31N 54°41' W 005°40'0 0.0
2015-Apr-21 06:28N 54°41' W 005°40'0 0.1
2015-Apr-21 05:22N 54°41' W 005°40'0 0.0
2015-Apr-21 04:31N 54°41' W 005°40'0 0.0
2015-Apr-21 03:28N 54°41' W 005°40'0 0.0
2015-Apr-21 02:31N 54°41' W 005°40'0 0.0
2015-Apr-21 01:31N 54°41' W 005°40'0 0.0
2015-Apr-21 00:28N 54°41' W 005°40'0 0.0
2015-Apr-20 23:31N 54°41' W 005°40'0 0.0
2015-Apr-20 22:28N 54°41' W 005°40'7 7.7
2015-Apr-20 21:33N 54°48' W 005°39'2412.0
2015-Apr-20 19:32N 55°11' W 005°55'1211.7
2015-Apr-20 18:33N 55°20' W 006°07'9 9.1
2015-Apr-20 17:33N 55°25' W 006°20'8 8.2
2015-Apr-20 16:33N 55°31' W 006°29'7 7.3
2015-Apr-20 15:33N 55°37' W 006°38'5 5.3
2015-Apr-20 14:33N 55°42' W 006°42'8 7.5
2015-Apr-20 13:33N 55°48' W 006°48'135 9.5
2015-Apr-19 23:26N 58°02' W 006°14'910.2
2015-Apr-19 22:33N 58°09' W 006°03'10 9.9
2015-Apr-19 21:33N 58°16' W 005°50'10 9.6
2015-Apr-19 20:33N 58°23' W 005°38'46 9.2
2015-Apr-19 15:32N 58°42' W 004°17'1111.6
2015-Apr-19 14:33N 58°42' W 003°55'1212.2
2015-Apr-19 13:33N 58°43' W 003°31'1414.2
2015-Apr-19 12:33N 58°43' W 003°04'1110.4
2015-Apr-19 11:28N 58°41' W 002°42'  
Track history (hours):
 
Tides and Currents Weather Stations Pressure Air Temp Water Temp Dewpoint Dewpoint Depression Visibility Wind Speed Wind Dir Waves Ship Positions

Jomi

Last reported at 2015-Apr-28 17:33 UTC. Time now 2015-Apr-28 18:16 UTC.
Position N 52°15' W 006°59'.

Length 88 m; draft 4.2 m.

Type: Cargo ship. MMSI: 309701000.

Date/timePositionNaut miles runAvg speedWind from/ knotsBaromVisibWave heightAir tempDewpointWater temp
2015-Apr-28 17:33N 52°15' W 006°59'7 7.3
2015-Apr-28 16:33N 52°08' W 006°60'7 7.1
2015-Apr-28 15:33N 52°04' W 006°50'150 9.7
2015-Apr-28 00:07N 51°27' W 002°55'5 9.4
2015-Apr-27 23:33N 51°30' W 002°48'4 3.7
2015-Apr-27 22:33N 51°31' W 002°42'0 0.0
2015-Apr-27 21:32N 51°31' W 002°42'0 0.0
2015-Apr-27 20:32N 51°31' W 002°42'0 0.0
2015-Apr-27 19:31N 51°31' W 002°42'0 0.0
2015-Apr-27 18:31N 51°31' W 002°42'0 0.0
2015-Apr-27 17:31N 51°31' W 002°42'0 0.0
2015-Apr-27 16:31N 51°31' W 002°42'0 0.0
2015-Apr-27 15:31N 51°31' W 002°42'0 0.0
2015-Apr-27 14:31N 51°31' W 002°42'0 0.0
2015-Apr-27 13:31N 51°31' W 002°42'0 0.0
2015-Apr-27 12:31N 51°31' W 002°42'0 0.0
2015-Apr-27 11:31N 51°31' W 002°42'0 0.0
2015-Apr-27 10:28N 51°31' W 002°42'0 0.0
2015-Apr-27 09:31N 51°31' W 002°42'0 0.0
2015-Apr-27 08:31N 51°31' W 002°42'0 0.0
2015-Apr-27 07:31N 51°31' W 002°42'0 0.0
2015-Apr-27 06:31N 51°31' W 002°42'0 0.0
2015-Apr-27 05:31N 51°31' W 002°42'0 0.0
2015-Apr-27 04:31N 51°31' W 002°42'0 0.0
2015-Apr-27 03:31N 51°31' W 002°42'0 0.0
2015-Apr-27 02:31N 51°31' W 002°42'0 0.0
2015-Apr-27 01:31N 51°31' W 002°42'0 0.0
2015-Apr-27 00:31N 51°31' W 002°42'0 0.0
2015-Apr-26 23:31N 51°31' W 002°42'0 0.0
2015-Apr-26 22:31N 51°31' W 002°42'0 0.0
2015-Apr-26 21:31N 51°31' W 002°42'0 0.0
2015-Apr-26 20:31N 51°31' W 002°42'0 0.0
2015-Apr-26 19:31N 51°31' W 002°42'0 0.0
2015-Apr-26 18:31N 51°31' W 002°42'0 0.0
2015-Apr-26 17:31N 51°31' W 002°42'0 0.0
2015-Apr-26 16:31N 51°31' W 002°42'0 0.0
2015-Apr-26 15:31N 51°31' W 002°42'0 0.0
2015-Apr-26 14:31N 51°31' W 002°42'0 0.0
2015-Apr-26 13:31N 51°31' W 002°42'0 0.0
2015-Apr-26 12:31N 51°31' W 002°42'0 0.3
2015-Apr-26 11:33N 51°30' W 002°42'2 1.7
2015-Apr-26 10:33N 51°30' W 002°45'187 5.3
2015-Apr-24 23:16N 54°11' W 005°21'7 9.8
2015-Apr-24 22:33N 54°18' W 005°21'1010.1
2015-Apr-24 21:33N 54°28' W 005°21'1010.0
2015-Apr-24 20:33N 54°38' W 005°25'8 8.5
2015-Apr-24 19:33N 54°42' W 005°38'10 9.4
2015-Apr-24 18:29N 54°37' W 005°54'0 0.2
2015-Apr-24 17:15N 54°37' W 005°54'0 0.0
2015-Apr-24 14:33N 54°37' W 005°54'0 0.0
2015-Apr-24 11:15N 54°37' W 005°54'0 0.0
2015-Apr-24 07:30N 54°37' W 005°54'0 0.0
2015-Apr-24 06:24N 54°37' W 005°54'0 0.0
2015-Apr-24 05:30N 54°37' W 005°54'0 0.0
2015-Apr-24 04:12N 54°37' W 005°54'0 0.0
2015-Apr-24 03:12N 54°37' W 005°54'0 0.0
2015-Apr-24 01:30N 54°37' W 005°54'0 0.0
2015-Apr-24 00:30N 54°37' W 005°54'0 0.0
2015-Apr-23 23:18N 54°37' W 005°54'0 0.2
2015-Apr-23 22:15N 54°37' W 005°54'0 0.0
2015-Apr-23 17:21N 54°37' W 005°54'0 0.0
2015-Apr-23 14:15N 54°37' W 005°54'0 0.0
2015-Apr-23 11:33N 54°37' W 005°54'0 0.0
2015-Apr-23 04:14N 54°37' W 005°54'0 0.0
2015-Apr-23 02:11N 54°37' W 005°54'0 0.0
2015-Apr-23 01:14N 54°37' W 005°54'0 0.0
2015-Apr-23 00:29N 54°37' W 005°54'0 0.0
2015-Apr-22 23:23N 54°37' W 005°54'0 0.0
2015-Apr-22 07:23N 54°37' W 005°54'0 0.0
2015-Apr-22 06:14N 54°37' W 005°54'0 0.1
2015-Apr-22 05:32N 54°37' W 005°54'0 0.0
2015-Apr-21 19:31N 54°37' W 005°54'0 0.0
2015-Apr-21 18:04N 54°37' W 005°54'0 0.0
2015-Apr-21 17:13N 54°37' W 005°54'2 0.5
2015-Apr-21 14:11N 54°38' W 005°52'6 9.0
2015-Apr-21 13:33N 54°41' W 005°44'2 2.3
2015-Apr-21 12:31N 54°41' W 005°40'0 0.0
2015-Apr-21 11:31N 54°41' W 005°40'0 0.0
2015-Apr-21 10:31N 54°41' W 005°40'0 0.0
2015-Apr-21 09:28N 54°41' W 005°40'0 0.0
2015-Apr-21 08:31N 54°41' W 005°40'0 0.0
2015-Apr-21 07:31N 54°41' W 005°40'0 0.0
2015-Apr-21 06:28N 54°41' W 005°40'0 0.1
2015-Apr-21 05:22N 54°41' W 005°40'0 0.0
2015-Apr-21 04:31N 54°41' W 005°40'0 0.0
2015-Apr-21 03:28N 54°41' W 005°40'0 0.0
2015-Apr-21 02:31N 54°41' W 005°40'0 0.0
2015-Apr-21 01:31N 54°41' W 005°40'0 0.0
2015-Apr-21 00:28N 54°41' W 005°40'0 0.0
2015-Apr-20 23:31N 54°41' W 005°40'0 0.0
2015-Apr-20 22:28N 54°41' W 005°40'7 7.7
2015-Apr-20 21:33N 54°48' W 005°39'2412.0
2015-Apr-20 19:32N 55°11' W 005°55'1211.7
2015-Apr-20 18:33N 55°20' W 006°07'9 9.1
2015-Apr-20 17:33N 55°25' W 006°20'8 8.2
2015-Apr-20 16:33N 55°31' W 006°29'7 7.3
2015-Apr-20 15:33N 55°37' W 006°38'5 5.3
2015-Apr-20 14:33N 55°42' W 006°42'8 7.5
2015-Apr-20 13:33N 55°48' W 006°48'135 9.5
2015-Apr-19 23:26N 58°02' W 006°14'910.2
2015-Apr-19 22:33N 58°09' W 006°03'10 9.9
2015-Apr-19 21:33N 58°16' W 005°50'10 9.6
2015-Apr-19 20:33N 58°23' W 005°38'46 9.2
2015-Apr-19 15:32N 58°42' W 004°17'1111.6
2015-Apr-19 14:33N 58°42' W 003°55'1212.2
2015-Apr-19 13:33N 58°43' W 003°31'1414.2
2015-Apr-19 12:33N 58°43' W 003°04'1110.4
2015-Apr-19 11:28N 58°41' W 002°42'  

Dump ship's entire track history